Back to Top

Language: 

My Weather Underground Personal Weather Station Historical Data with Graphs...

Delerius Weather Station Historical Data
Daily Summary for May 22, 2017 Units:  Metric    English   Both
« Previous Day
Next Day »
Daily Weekly Monthly Yearly Custom
  High: Low: Average:
Temperature: 22.6 °C 9.4 °C 16.1 °C
Dew Point: 13.5 °C 7.4 °C 10.7 °C
Humidity: 94 % 50 % 72 %
Wind Speed: 20.9 km/h 0 km/h 9.2 km/h
Wind Gust: 41.8 km/h - -
Wind:- - South
Pressure: 1019.2 hPa 1011.1 hPa -
Precipitation: 0 mm    
Historical Graphs
 
 
Tabular Data for May 22, 2017
Time Temperature Dew Point Pressure Wind Wind Speed Wind Gust Humidity Rainfall Rate (Hourly) solar Conditions
00:01 10.3 °C 8.2 °C 1019.2 hPa Calm   3.2 km/h 87 % 0 mm 0 W/m2
00:06 10.4 °C 8.3 °C 1019.2 hPa ESE 1.6 km/h 6.4 km/h 87 % 0 mm 0 W/m2
00:11 10.4 °C 8.3 °C 1019.2 hPa ESE 1.6 km/h 6.4 km/h 87 % 0 mm 0 W/m2
00:16 10.4 °C 8.3 °C 1019.2 hPa Calm   4.8 km/h 87 % 0 mm 0 W/m2
00:21 10.4 °C 8.3 °C 1019.2 hPa ESE 1.6 km/h 4.8 km/h 87 % 0 mm 0 W/m2
00:26 10.6 °C 8.7 °C 1019.2 hPa ESE 3.2 km/h 8 km/h 88 % 0 mm 0 W/m2
00:31 10.8 °C 8.7 °C 1019.2 hPa ESE 3.2 km/h 8 km/h 87 % 0 mm 0 W/m2
00:36 10.8 °C 8.7 °C 1019.2 hPa ESE 3.2 km/h 8 km/h 87 % 0 mm 0 W/m2
00:41 10.9 °C 8.8 °C 1019.2 hPa ESE 3.2 km/h 8 km/h 87 % 0 mm 0 W/m2
00:46 10.9 °C 8.7 °C 1019.2 hPa ESE 1.6 km/h 8 km/h 86 % 0 mm 0 W/m2
00:51 10.8 °C 8.4 °C 1018.8 hPa ESE 1.6 km/h 8 km/h 85 % 0 mm 0 W/m2
00:56 10.6 °C 8.2 °C 1018.8 hPa Calm   8 km/h 85 % 0 mm 0 W/m2
01:01 10.3 °C 7.9 °C 1018.8 hPa Calm     85 % 0 mm 0 W/m2
01:06 10.1 °C 7.9 °C 1018.8 hPa Calm     86 % 0 mm 0 W/m2
01:11 9.8 °C 7.6 °C 1018.8 hPa Calm     86 % 0 mm 0 W/m2
01:16 9.7 °C 7.4 °C 1018.8 hPa Calm   4.8 km/h 86 % 0 mm 0 W/m2
01:21 9.7 °C 7.8 °C 1018.8 hPa ESE 1.6 km/h 6.4 km/h 88 % 0 mm 0 W/m2
01:26 9.8 °C 8.2 °C 1018.8 hPa ESE 3.2 km/h 8 km/h 90 % 0 mm 0 W/m2
01:31 9.9 °C 8.3 °C 1018.8 hPa ESE 4.8 km/h 9.7 km/h 90 % 0 mm 0 W/m2
01:36 10 °C 8.4 °C 1018.5 hPa ESE 3.2 km/h 9.7 km/h 90 % 0 mm 0 W/m2
01:41 10.1 °C 8.6 °C 1018.5 hPa ESE 3.2 km/h 8 km/h 90 % 0 mm 0 W/m2
01:46 10.2 °C 8.6 °C 1018.5 hPa ESE 3.2 km/h 8 km/h 90 % 0 mm 0 W/m2
01:51 10.3 °C 8.7 °C 1018.5 hPa ESE 3.2 km/h 8 km/h 90 % 0 mm 0 W/m2
01:56 10.4 °C 8.8 °C 1018.5 hPa ESE 3.2 km/h 8 km/h 90 % 0 mm 0 W/m2
02:01 10.4 °C 8.8 °C 1018.5 hPa ESE 1.6 km/h 8 km/h 90 % 0 mm 0 W/m2
02:06 10.5 °C 8.9 °C 1018.5 hPa ESE 1.6 km/h 8 km/h 90 % 0 mm 0 W/m2
02:11 10.5 °C 8.8 °C 1018.5 hPa ESE 3.2 km/h 9.7 km/h 89 % 0 mm 0 W/m2
02:16 10.4 °C 8.7 °C 1018.5 hPa ESE 3.2 km/h 9.7 km/h 89 % 0 mm 0 W/m2
02:21 10.4 °C 8.7 °C 1018.2 hPa ESE 4.8 km/h 9.7 km/h 89 % 0 mm 0 W/m2
02:26 10.3 °C 8.6 °C 1018.5 hPa SE 6.4 km/h 11.3 km/h 89 % 0 mm 0 W/m2
02:32 10.3 °C 8.6 °C 1018.2 hPa SE 6.4 km/h 12.9 km/h 89 % 0 mm 0 W/m2
02:37 10.3 °C 8.7 °C 1018.2 hPa SE 6.4 km/h 12.9 km/h 90 % 0 mm 0 W/m2
02:42 10.3 °C 8.7 °C 1018.2 hPa SE 6.4 km/h 11.3 km/h 90 % 0 mm 0 W/m2
02:47 10.3 °C 8.7 °C 1018.2 hPa SE 6.4 km/h 11.3 km/h 90 % 0 mm 0 W/m2
02:52 10.2 °C 8.6 °C 1018.2 hPa ESE 3.2 km/h 9.7 km/h 90 % 0 mm 0 W/m2
02:57 10.2 °C 8.6 °C 1018.2 hPa ESE 1.6 km/h 9.7 km/h 90 % 0 mm 0 W/m2
03:02 10.2 °C 8.6 °C 1018.2 hPa Calm   9.7 km/h 90 % 0 mm 0 W/m2
03:07 10.2 °C 8.6 °C 1018.2 hPa Calm   1.6 km/h 90 % 0 mm 0 W/m2
03:12 10.2 °C 8.6 °C 1018.2 hPa Calm   3.2 km/h 90 % 0 mm 0 W/m2
03:17 10.1 °C 8.6 °C 1018.2 hPa Calm   3.2 km/h 90 % 0 mm 0 W/m2
03:22 10.1 °C 8.6 °C 1018.2 hPa Calm   1.6 km/h 90 % 0 mm 0 W/m2
03:27 10 °C 8.4 °C 1018.2 hPa Calm   1.6 km/h 90 % 0 mm 0 W/m2
03:32 10 °C 8.4 °C 1018.2 hPa Calm   1.6 km/h 90 % 0 mm 0 W/m2
03:37 10 °C 8.6 °C 1017.8 hPa Calm   3.2 km/h 91 % 0 mm 0 W/m2
03:42 10 °C 8.6 °C 1017.8 hPa ESE 1.6 km/h 9.7 km/h 91 % 0 mm 0 W/m2
03:47 10 °C 8.6 °C 1017.8 hPa ESE 3.2 km/h 9.7 km/h 91 % 0 mm 0 W/m2
03:52 9.9 °C 8.5 °C 1017.8 hPa SSE 1.6 km/h 6.4 km/h 91 % 0 mm 0 W/m2
03:57 9.9 °C 8.5 °C 1017.8 hPa SSE 1.6 km/h 6.4 km/h 91 % 0 mm 0 W/m2
04:02 9.9 °C 8.5 °C 1017.8 hPa Calm   3.2 km/h 91 % 0 mm 0 W/m2
04:08 9.9 °C 8.5 °C 1017.5 hPa Calm   3.2 km/h 91 % 0 mm 0 W/m2
04:13 9.9 °C 8.5 °C 1017.5 hPa Calm   4.8 km/h 91 % 0 mm 0 W/m2
04:18 9.9 °C 8.7 °C 1017.5 hPa Calm   4.8 km/h 92 % 0 mm 0 W/m2
04:23 9.9 °C 8.5 °C 1017.5 hPa Calm   3.2 km/h 91 % 0 mm 0 W/m2
04:28 9.9 °C 8.5 °C 1017.2 hPa Calm   8 km/h 91 % 0 mm 0 W/m2
04:33 9.9 °C 8.7 °C 1017.5 hPa Calm   8 km/h 92 % 0 mm 0 W/m2
04:38 9.9 °C 8.7 °C 1017.2 hPa Calm   1.6 km/h 92 % 0 mm 0 W/m2
04:43 9.9 °C 8.7 °C 1017.2 hPa Calm   3.2 km/h 92 % 0 mm 0 W/m2
04:48 9.8 °C 8.4 °C 1017.2 hPa Calm   3.2 km/h 91 % 0 mm 0 W/m2
04:53 9.7 °C 8.3 °C 1017.2 hPa Calm     91 % 0 mm 0 W/m2
04:58 9.7 °C 8.3 °C 1017.2 hPa Calm   1.6 km/h 91 % 0 mm 0 W/m2
05:03 9.6 °C 8.2 °C 1017.2 hPa Calm   1.6 km/h 91 % 0 mm 0 W/m2
05:08 9.6 °C 8.4 °C 1017.2 hPa Calm     92 % 0 mm 7 W/m2
05:13 9.6 °C 8.4 °C 1017.2 hPa Calm     92 % 0 mm 9 W/m2
05:18 9.5 °C 8.3 °C 1017.2 hPa Calm   1.6 km/h 92 % 0 mm 12 W/m2
05:23 9.5 °C 8.3 °C 1017.2 hPa Calm   1.6 km/h 92 % 0 mm 16 W/m2
05:28 9.5 °C 8.3 °C 1017.2 hPa South 1.6 km/h 4.8 km/h 92 % 0 mm 19 W/m2
05:33 9.5 °C 8.3 °C 1017.2 hPa South 1.6 km/h 6.4 km/h 92 % 0 mm 21 W/m2
05:38 9.4 °C 8.2 °C 1017.2 hPa South 1.6 km/h 6.4 km/h 92 % 0 mm 25 W/m2
05:43 9.4 °C 8.2 °C 1017.2 hPa Calm   1.6 km/h 92 % 0 mm 30 W/m2
05:48 9.4 °C 8.3 °C 1017.2 hPa Calm     93 % 0 mm 32 W/m2
05:53 9.4 °C 8.3 °C 1017.2 hPa Calm     93 % 0 mm 35 W/m2
05:58 9.4 °C 8.3 °C 1017.2 hPa Calm   3.2 km/h 93 % 0 mm 39 W/m2
06:03 9.4 °C 8.3 °C 1017.2 hPa Calm   4.8 km/h 93 % 0 mm 67 W/m2
06:08 9.5 °C 8.4 °C 1017.2 hPa Calm   4.8 km/h 93 % 0 mm 79 W/m2
06:13 9.7 °C 8.8 °C 1016.8 hPa South 1.6 km/h 6.4 km/h 94 % 0 mm 102 W/m2
06:18 9.8 °C 8.7 °C 1016.8 hPa South 1.6 km/h 6.4 km/h 93 % 0 mm 39 W/m2
06:23 9.9 °C 8.8 °C 1016.8 hPa South 3.2 km/h 8 km/h 93 % 0 mm 60 W/m2
06:28 10.2 °C 9.1 °C 1016.8 hPa SSE 4.8 km/h 9.7 km/h 93 % 0 mm 58 W/m2
06:33 10.3 °C 9.2 °C 1016.8 hPa SSE 4.8 km/h 9.7 km/h 93 % 0 mm 44 W/m2
06:38 10.4 °C 9.2 °C 1016.8 hPa SSE 6.4 km/h 9.7 km/h 92 % 0 mm 51 W/m2
06:43 10.5 °C 9.1 °C 1016.8 hPa SSE 4.8 km/h 9.7 km/h 91 % 0 mm 56 W/m2
06:49 10.6 °C 9.2 °C 1016.8 hPa SSE 4.8 km/h 9.7 km/h 91 % 0 mm 62 W/m2
06:54 10.7 °C 9.3 °C 1016.8 hPa SSE 4.8 km/h 9.7 km/h 91 % 0 mm 63 W/m2
06:59 10.8 °C 9.2 °C 1016.8 hPa SSE 3.2 km/h 6.4 km/h 90 % 0 mm 54 W/m2
07:04 10.8 °C 9.2 °C 1016.8 hPa SSE 1.6 km/h 6.4 km/h 90 % 0 mm 53 W/m2
07:09 10.9 °C 9.3 °C 1016.8 hPa Calm   3.2 km/h 90 % 0 mm 100 W/m2
07:14 11.1 °C 9.5 °C 1016.8 hPa South 1.6 km/h 8 km/h 90 % 0 mm 118 W/m2
07:19 11.2 °C 9.4 °C 1016.8 hPa South 3.2 km/h 8 km/h 89 % 0 mm 134 W/m2
07:24 11.3 °C 9.4 °C 1016.8 hPa South 4.8 km/h 9.7 km/h 88 % 0 mm 127 W/m2
07:29 11.3 °C 9.4 °C 1016.8 hPa South 4.8 km/h 9.7 km/h 88 % 0 mm 155 W/m2
07:34 11.4 °C 9.5 °C 1016.8 hPa South 3.2 km/h 8 km/h 88 % 0 mm 174 W/m2
07:39 11.6 °C 9.7 °C 1016.8 hPa South 3.2 km/h 8 km/h 88 % 0 mm 264 W/m2
07:44 11.8 °C 9.7 °C 1016.8 hPa South 1.6 km/h 8 km/h 87 % 0 mm 223 W/m2
07:49 12.1 °C 9.8 °C 1016.8 hPa South 1.6 km/h 8 km/h 86 % 0 mm 195 W/m2
07:54 12.3 °C 10 °C 1016.5 hPa SSE 3.2 km/h 8 km/h 86 % 0 mm 167 W/m2
07:59 12.3 °C 9.8 °C 1016.5 hPa SSE 3.2 km/h 9.7 km/h 85 % 0 mm 206 W/m2
08:04 12.4 °C 10.1 °C 1016.5 hPa SSE 1.6 km/h 9.7 km/h 86 % 0 mm 192 W/m2
08:09 12.7 °C 10.1 °C 1016.5 hPa SSE 3.2 km/h 12.9 km/h 84 % 0 mm 176 W/m2
08:14 12.8 °C 10.2 °C 1016.5 hPa SSE 6.4 km/h 12.9 km/h 84 % 0 mm 128 W/m2
08:19 12.8 °C 10 °C 1016.5 hPa SE 8 km/h 14.5 km/h 83 % 0 mm 123 W/m2
08:24 12.9 °C 10.1 °C 1016.5 hPa SE 4.8 km/h 14.5 km/h 83 % 0 mm 125 W/m2
08:29 12.9 °C 10.1 °C 1016.5 hPa SSE 3.2 km/h 11.3 km/h 83 % 0 mm 121 W/m2
08:32 12.9 °C 10.1 °C 1016.5 hPa SSE 3.2 km/h 11.3 km/h 83 % 0 mm 141 W/m2
08:37 13.1 °C 10.3 °C 1016.1 hPa SSE 1.6 km/h 8 km/h 83 % 0 mm 332 W/m2
08:42 13.3 °C 10.5 °C 1016.5 hPa SSE 3.2 km/h 9.7 km/h 83 % 0 mm 494 W/m2
08:47 13.8 °C 10.8 °C 1016.1 hPa SSE 4.8 km/h 9.7 km/h 82 % 0 mm 469 W/m2
08:52 14.3 °C 10.9 °C 1016.1 hPa SE 6.4 km/h 11.3 km/h 80 % 0 mm 534 W/m2
08:57 14.6 °C 11 °C 1016.5 hPa SE 6.4 km/h 12.9 km/h 79 % 0 mm 476 W/m2
09:02 14.9 °C 11.3 °C 1016.1 hPa SE 6.4 km/h 12.9 km/h 79 % 0 mm 304 W/m2
09:07 15.2 °C 11.4 °C 1016.1 hPa ESE 4.8 km/h 11.3 km/h 78 % 0 mm 475 W/m2
09:08 15.2 °C 11.4 °C 1016.1 hPa ESE 4.8 km/h 11.3 km/h 78 % 0 mm 563 W/m2
09:13 15.4 °C 11.4 °C 1016.1 hPa SE 8 km/h 16.1 km/h 77 % 0 mm 548 W/m2
09:18 15.8 °C 11.6 °C 1016.1 hPa SE 9.7 km/h 16.1 km/h 76 % 0 mm 608 W/m2
09:23 16.1 °C 11.4 °C 1016.1 hPa SE 11.3 km/h 17.7 km/h 74 % 0 mm 471 W/m2
09:28 16.2 °C 11.6 °C 1015.8 hPa SE 11.3 km/h 17.7 km/h 74 % 0 mm 452 W/m2
09:34 16.4 °C 11.6 °C 1015.8 hPa SE 11.3 km/h 19.3 km/h 73 % 0 mm 538 W/m2
09:39 16.5 °C 11.4 °C 1015.8 hPa SSE 11.3 km/h 19.3 km/h 72 % 0 mm 434 W/m2
09:44 16.6 °C 11.3 °C 1015.8 hPa SE 12.9 km/h 22.5 km/h 71 % 0 mm 480 W/m2
09:49 16.7 °C 11.4 °C 1015.8 hPa SE 12.9 km/h 22.5 km/h 71 % 0 mm 355 W/m2
09:54 16.7 °C 11.4 °C 1015.8 hPa SE 12.9 km/h 19.3 km/h 71 % 0 mm 427 W/m2
09:59 16.7 °C 11.4 °C 1015.8 hPa SE 12.9 km/h 19.3 km/h 71 % 0 mm 350 W/m2
10:04 16.7 °C 11.4 °C 1015.8 hPa SSE 11.3 km/h 19.3 km/h 71 % 0 mm 497 W/m2
10:09 16.9 °C 11.6 °C 1015.8 hPa SSE 11.3 km/h 19.3 km/h 71 % 0 mm 517 W/m2
10:14 17.2 °C 11.9 °C 1015.8 hPa SE 9.7 km/h 19.3 km/h 71 % 0 mm 599 W/m2
10:19 17.6 °C 12.1 °C 1015.5 hPa SSE 9.7 km/h 17.7 km/h 70 % 0 mm 656 W/m2
10:24 17.8 °C 11.8 °C 1015.1 hPa SE 12.9 km/h 25.7 km/h 68 % 0 mm 533 W/m2
10:29 18 °C 12 °C 1015.5 hPa SE 14.5 km/h 25.7 km/h 68 % 0 mm 462 W/m2
10:34 18 °C 11.8 °C 1015.1 hPa SE 12.9 km/h 22.5 km/h 67 % 0 mm 487 W/m2
10:39 18.1 °C 11.9 °C 1015.1 hPa SE 12.9 km/h 24.1 km/h 67 % 0 mm 353 W/m2
10:44 18.1 °C 11.7 °C 1015.5 hPa SSE 12.9 km/h 24.1 km/h 66 % 0 mm 330 W/m2
10:49 18.1 °C 11.7 °C 1015.1 hPa SSE 14.5 km/h 24.1 km/h 66 % 0 mm 334 W/m2
10:54 18.1 °C 11.7 °C 1015.1 hPa SE 14.5 km/h 22.5 km/h 66 % 0 mm 315 W/m2
10:59 18.1 °C 11.9 °C 1015.1 hPa SE 12.9 km/h 22.5 km/h 67 % 0 mm 304 W/m2
11:04 18.2 °C 11.9 °C 1015.1 hPa SSE 11.3 km/h 17.7 km/h 67 % 0 mm 299 W/m2
11:09 18.3 °C 11.8 °C 1015.1 hPa SSE 9.7 km/h 24.1 km/h 66 % 0 mm 297 W/m2
11:14 18.3 °C 11.4 °C 1015.1 hPa SSE 12.9 km/h 24.1 km/h 64 % 0 mm 304 W/m2
11:19 18.4 °C 11.4 °C 1015.1 hPa SSE 14.5 km/h 25.7 km/h 64 % 0 mm 306 W/m2
11:24 18.5 °C 11.6 °C 1015.1 hPa SSE 12.9 km/h 25.7 km/h 64 % 0 mm 396 W/m2
11:25 18.6 °C 11.7 °C 1015.1 hPa SSE 12.9 km/h 25.7 km/h 64 % 0 mm 410 W/m2
11:30 18.7 °C 11.5 °C 1015.1 hPa South 11.3 km/h 20.9 km/h 63 % 0 mm 367 W/m2
11:35 18.8 °C 11.8 °C 1015.1 hPa South 9.7 km/h 19.3 km/h 64 % 0 mm 325 W/m2
11:40 19 °C 11.8 °C 1015.1 hPa South 9.7 km/h 24.1 km/h 63 % 0 mm 309 W/m2
11:45 19.1 °C 11.7 °C 1014.8 hPa SSE 12.9 km/h 24.1 km/h 62 % 0 mm 332 W/m2
11:50 19.1 °C 11.2 °C 1014.8 hPa SSE 16.1 km/h 33.8 km/h 60 % 0 mm 353 W/m2
11:55 19.2 °C 11.2 °C 1014.8 hPa SSE 16.1 km/h 33.8 km/h 60 % 0 mm 469 W/m2
12:00 19.3 °C 11.3 °C 1014.8 hPa South 14.5 km/h 30.6 km/h 60 % 0 mm 439 W/m2
12:05 19.6 °C 11.6 °C 1014.8 hPa South 12.9 km/h 25.7 km/h 60 % 0 mm 1032 W/m2
12:10 19.9 °C 11.4 °C 1014.8 hPa South 16.1 km/h 30.6 km/h 58 % 0 mm 536 W/m2
12:15 19.9 °C 11.4 °C 1014.4 hPa South 16.1 km/h 30.6 km/h 58 % 0 mm 445 W/m2
12:20 19.9 °C 11.7 °C 1014.4 hPa South 14.5 km/h 29 km/h 59 % 0 mm 526 W/m2
12:25 20.1 °C 11.6 °C 1014.4 hPa South 14.5 km/h 30.6 km/h 58 % 0 mm 1046 W/m2
12:30 20.4 °C 12.1 °C 1014.4 hPa South 14.5 km/h 30.6 km/h 59 % 0 mm 617 W/m2
12:36 20.7 °C 11.9 °C 1014.1 hPa South 14.5 km/h 30.6 km/h 57 % 0 mm 761 W/m2
12:41 20.8 °C 11.9 °C 1014.1 hPa SSE 16.1 km/h 30.6 km/h 57 % 0 mm 784 W/m2
12:46 21.1 °C 12 °C 1014.1 hPa South 16.1 km/h 32.2 km/h 56 % 0 mm 981 W/m2
12:51 21.2 °C 11.8 °C 1014.1 hPa South 16.1 km/h 32.2 km/h 55 % 0 mm 909 W/m2
12:56 21.3 °C 12.2 °C 1013.8 hPa SSE 14.5 km/h 25.7 km/h 56 % 0 mm 893 W/m2
13:01 21.4 °C 11.7 °C 1013.8 hPa SSE 14.5 km/h 32.2 km/h 54 % 0 mm 431 W/m2
13:06 21.4 °C 11.7 °C 1013.8 hPa South 16.1 km/h 32.2 km/h 54 % 0 mm 837 W/m2
13:11 21.4 °C 11.4 °C 1014.1 hPa South 16.1 km/h 33.8 km/h 53 % 0 mm 874 W/m2
13:16 21.3 °C 11.1 °C 1013.8 hPa South 17.7 km/h 33.8 km/h 52 % 0 mm 740 W/m2
13:21 21.2 °C 11.5 °C 1013.8 hPa SSW 19.3 km/h 33.8 km/h 54 % 0 mm 547 W/m2
13:26 21.3 °C 11.3 °C 1013.8 hPa South 19.3 km/h 30.6 km/h 53 % 0 mm 482 W/m2
13:31 21.3 °C 11.3 °C 1013.8 hPa South 16.1 km/h 32.2 km/h 53 % 0 mm 663 W/m2
13:36 21.3 °C 11.3 °C 1013.8 hPa South 16.1 km/h 32.2 km/h 53 % 0 mm 420 W/m2
13:41 21.3 °C 11.3 °C 1013.4 hPa South 16.1 km/h 30.6 km/h 53 % 0 mm 434 W/m2
13:46 21.1 °C 11.2 °C 1013.4 hPa SSE 17.7 km/h 37 km/h 53 % 0 mm 503 W/m2
13:51 21 °C 11.3 °C 1013.4 hPa SSE 19.3 km/h 37 km/h 54 % 0 mm 475 W/m2
13:56 21.1 °C 11.4 °C 1013.4 hPa SSE 16.1 km/h 32.2 km/h 54 % 0 mm 573 W/m2
14:01 21.1 °C 11.7 °C 1013.4 hPa SSE 16.1 km/h 30.6 km/h 55 % 0 mm 577 W/m2
14:06 21.3 °C 11.3 °C 1013.4 hPa South 17.7 km/h 33.8 km/h 53 % 0 mm 489 W/m2
14:11 21.3 °C 11.1 °C 1013.4 hPa South 17.7 km/h 33.8 km/h 52 % 0 mm 459 W/m2
14:16 21.3 °C 11.3 °C 1013.4 hPa SSE 17.7 km/h 35.4 km/h 53 % 0 mm 710 W/m2
14:22 21.4 °C 11.7 °C 1013.4 hPa South 16.1 km/h 35.4 km/h 54 % 0 mm 663 W/m2
14:27 21.5 °C 11.5 °C 1013.4 hPa South 16.1 km/h 33.8 km/h 53 % 0 mm 638 W/m2
14:32 21.6 °C 11.6 °C 1013.1 hPa South 17.7 km/h 33.8 km/h 53 % 0 mm 487 W/m2
14:37 21.6 °C 11.6 °C 1013.1 hPa South 17.7 km/h 30.6 km/h 53 % 0 mm 487 W/m2
14:42 21.5 °C 11.2 °C 1013.1 hPa South 16.1 km/h 30.6 km/h 52 % 0 mm 564 W/m2
14:46 21.5 °C 11.2 °C 1013.1 hPa South 16.1 km/h 30.6 km/h 52 % 0 mm 571 W/m2
14:51 21.5 °C 11.8 °C 1013.1 hPa South 16.1 km/h 30.6 km/h 54 % 0 mm 571 W/m2
14:56 21.7 °C 11.7 °C 1013.1 hPa South 14.5 km/h 41.8 km/h 53 % 0 mm 649 W/m2
15:01 21.8 °C 11.5 °C 1012.8 hPa South 16.1 km/h 41.8 km/h 52 % 0 mm 773 W/m2
15:06 21.9 °C 11.3 °C 1012.8 hPa SSE 17.7 km/h 32.2 km/h 51 % 0 mm 571 W/m2
15:11 21.9 °C 11 °C 1012.8 hPa SE 20.9 km/h 37 km/h 50 % 0 mm 439 W/m2
15:16 21.8 °C 11.5 °C 1012.8 hPa SE 17.7 km/h 37 km/h 52 % 0 mm 439 W/m2
15:21 21.9 °C 11 °C 1012.8 hPa South 16.1 km/h 29 km/h 50 % 0 mm 526 W/m2
15:27 21.8 °C 11.5 °C 1012.8 hPa SSW 12.9 km/h 29 km/h 52 % 0 mm 406 W/m2
15:32 21.8 °C 11.5 °C 1012.4 hPa South 12.9 km/h 25.7 km/h 52 % 0 mm 336 W/m2
15:37 21.7 °C 11.4 °C 1012.8 hPa SSE 14.5 km/h 24.1 km/h 52 % 0 mm 329 W/m2
15:42 21.7 °C 11.4 °C 1012.4 hPa South 12.9 km/h 24.1 km/h 52 % 0 mm 371 W/m2
15:47 21.7 °C 11.1 °C 1012.4 hPa SSW 12.9 km/h 29 km/h 51 % 0 mm 406 W/m2
15:52 21.7 °C 11.1 °C 1012.4 hPa SSW 16.1 km/h 29 km/h 51 % 0 mm 471 W/m2
15:57 21.7 °C 11.1 °C 1012.4 hPa South 16.1 km/h 29 km/h 51 % 0 mm 383 W/m2
16:02 21.7 °C 11.1 °C 1012.4 hPa South 16.1 km/h 32.2 km/h 51 % 0 mm 424 W/m2
16:07 21.7 °C 11.4 °C 1012.4 hPa South 14.5 km/h 32.2 km/h 52 % 0 mm 408 W/m2
16:12 21.8 °C 11.5 °C 1012.4 hPa South 12.9 km/h 25.7 km/h 52 % 0 mm 501 W/m2
16:17 22.1 °C 11.8 °C 1012.4 hPa South 12.9 km/h 24.1 km/h 52 % 0 mm 330 W/m2
16:22 22 °C 11.7 °C 1012.1 hPa SSW 14.5 km/h 24.1 km/h 52 % 0 mm 427 W/m2
16:27 22.1 °C 11.8 °C 1012.1 hPa SSW 14.5 km/h 24.1 km/h 52 % 0 mm 838 W/m2
16:32 22.2 °C 11.6 °C 1012.1 hPa SSW 14.5 km/h 25.7 km/h 51 % 0 mm 401 W/m2
16:37 22.1 °C 11.5 °C 1012.1 hPa South 14.5 km/h 30.6 km/h 51 % 0 mm 555 W/m2
16:42 22 °C 11.7 °C 1012.1 hPa South 16.1 km/h 30.6 km/h 52 % 0 mm 199 W/m2
16:47 22 °C 11.7 °C 1011.7 hPa South 12.9 km/h 24.1 km/h 52 % 0 mm 267 W/m2
16:52 21.8 °C 11.2 °C 1011.7 hPa South 16.1 km/h 33.8 km/h 51 % 0 mm 278 W/m2
16:57 21.8 °C 11.2 °C 1011.7 hPa SSW 17.7 km/h 33.8 km/h 51 % 0 mm 251 W/m2
16:59 21.8 °C 11.8 °C 1011.7 hPa SSW 16.1 km/h 33.8 km/h 53 % 0 mm 251 W/m2
17:04 21.9 °C 11.6 °C 1011.7 hPa SSW 12.9 km/h 29 km/h 52 % 0 mm 747 W/m2
17:09 22.2 °C 11.9 °C 1011.7 hPa South 12.9 km/h 25.7 km/h 52 % 0 mm 587 W/m2
17:14 22.4 °C 11.8 °C 1011.7 hPa South 12.9 km/h 25.7 km/h 51 % 0 mm 557 W/m2
17:19 22.4 °C 11.8 °C 1011.7 hPa South 14.5 km/h 25.7 km/h 51 % 0 mm 566 W/m2
17:24 22.4 °C 11.8 °C 1011.4 hPa South 16.1 km/h 25.7 km/h 51 % 0 mm 543 W/m2
17:29 22.3 °C 11.7 °C 1011.4 hPa SSW 17.7 km/h 35.4 km/h 51 % 0 mm 534 W/m2
17:34 22.2 °C 11.9 °C 1011.4 hPa SW 17.7 km/h 35.4 km/h 52 % 0 mm 554 W/m2
17:39 22.3 °C 12.3 °C 1011.4 hPa SW 16.1 km/h 24.1 km/h 53 % 0 mm 570 W/m2
17:44 22.4 °C 12.1 °C 1011.4 hPa SSW 16.1 km/h 33.8 km/h 52 % 0 mm 552 W/m2
17:49 22.4 °C 12.1 °C 1011.4 hPa SSW 16.1 km/h 33.8 km/h 52 % 0 mm 577 W/m2
17:54 22.6 °C 12.6 °C 1011.4 hPa SSW 14.5 km/h 29 km/h 53 % 0 mm 223 W/m2
17:59 22.5 °C 12.4 °C 1011.4 hPa SSW 12.9 km/h 29 km/h 53 % 0 mm 281 W/m2
18:04 22.3 °C 12.6 °C 1011.4 hPa SSW 16.1 km/h 32.2 km/h 54 % 0 mm 236 W/m2
18:09 22.1 °C 12.3 °C 1011.4 hPa SW 19.3 km/h 33.8 km/h 54 % 0 mm 462 W/m2
18:14 22.3 °C 12.6 °C 1011.4 hPa SSW 17.7 km/h 33.8 km/h 54 % 0 mm 311 W/m2
18:19 22.2 °C 11.9 °C 1011.1 hPa SSW 16.1 km/h 32.2 km/h 52 % 0 mm 146 W/m2
18:24 22 °C 12 °C 1011.1 hPa SSW 16.1 km/h 32.2 km/h 53 % 0 mm 67 W/m2
18:29 21.8 °C 11.8 °C 1011.1 hPa SSW 14.5 km/h 29 km/h 53 % 0 mm 84 W/m2
18:34 21.7 °C 11.7 °C 1011.1 hPa SSW 16.1 km/h 29 km/h 53 % 0 mm 91 W/m2
18:39 21.6 °C 11.6 °C 1011.1 hPa SSW 16.1 km/h 25.7 km/h 53 % 0 mm 95 W/m2
18:44 21.6 °C 11.6 °C 1011.1 hPa SW 14.5 km/h 22.5 km/h 53 % 0 mm 88 W/m2
18:49 21.6 °C 11.9 °C 1011.1 hPa SW 12.9 km/h 22.5 km/h 54 % 0 mm 72 W/m2
18:54 21.5 °C 11.8 °C 1011.1 hPa SW 11.3 km/h 17.7 km/h 54 % 0 mm 62 W/m2
18:59 21.4 °C 11.4 °C 1011.1 hPa SW 12.9 km/h 29 km/h 53 % 0 mm 69 W/m2
19:04 21.4 °C 11.1 °C 1011.1 hPa SSW 14.5 km/h 29 km/h 52 % 0 mm 46 W/m2
19:09 21.3 °C 11.1 °C 1011.1 hPa SSW 12.9 km/h 24.1 km/h 52 % 0 mm 47 W/m2
19:15 21.3 °C 11.3 °C 1011.1 hPa SSW 12.9 km/h 20.9 km/h 53 % 0 mm 49 W/m2
19:20 21.2 °C 11.2 °C 1011.1 hPa SSW 12.9 km/h 20.9 km/h 53 % 0 mm 58 W/m2
19:25 21.1 °C 11.4 °C 1011.1 hPa SW 12.9 km/h 22.5 km/h 54 % 0 mm 53 W/m2
19:27 21.1 °C 11.4 °C 1011.1 hPa SW 12.9 km/h 22.5 km/h 54 % 0 mm 53 W/m2
19:30 21.1 °C 11.4 °C 1011.1 hPa SW 11.3 km/h 22.5 km/h 54 % 0 mm 44 W/m2
19:35 21.1 °C 11.4 °C 1011.1 hPa SW 11.3 km/h 20.9 km/h 54 % 0 mm 40 W/m2
19:40 20.9 °C 11.5 °C 1011.1 hPa SW 12.9 km/h 20.9 km/h 55 % 0 mm 30 W/m2
19:45 20.9 °C 11.5 °C 1011.1 hPa SW 12.9 km/h 22.5 km/h 55 % 0 mm 26 W/m2
19:50 20.8 °C 11.7 °C 1011.1 hPa SW 12.9 km/h 25.7 km/h 56 % 0 mm 32 W/m2
19:55 20.7 °C 11.6 °C 1011.1 hPa SSW 14.5 km/h 25.7 km/h 56 % 0 mm 33 W/m2
20:00 20.7 °C 11.9 °C 1011.1 hPa SW 12.9 km/h 22.5 km/h 57 % 0 mm 37 W/m2
20:05 20.6 °C 11.8 °C 1011.1 hPa SW 12.9 km/h 19.3 km/h 57 % 0 mm 33 W/m2
20:10 20.5 °C 11.9 °C 1011.1 hPa SW 11.3 km/h 19.3 km/h 58 % 0 mm 21 W/m2
20:15 20.4 °C 11.8 °C 1011.1 hPa SW 9.7 km/h 14.5 km/h 58 % 0 mm 18 W/m2
20:20 20.3 °C 12 °C 1011.1 hPa SW 9.7 km/h 14.5 km/h 59 % 0 mm 12 W/m2
20:25 20.2 °C 11.9 °C 1011.4 hPa SW 9.7 km/h 14.5 km/h 59 % 0 mm 11 W/m2
20:30 20.1 °C 12.6 °C 1011.4 hPa WSW 9.7 km/h 17.7 km/h 62 % 0 mm 9 W/m2
20:35 19.9 °C 13.3 °C 1011.7 hPa West 11.3 km/h 20.9 km/h 66 % 0 mm 9 W/m2
20:40 19.5 °C 13.4 °C 1011.7 hPa WNW 14.5 km/h 32.2 km/h 68 % 0 mm 14 W/m2
20:46 19.1 °C 13.5 °C 1011.7 hPa WNW 14.5 km/h 32.2 km/h 70 % 0 mm 11 W/m2
20:51 18.8 °C 13.4 °C 1011.7 hPa WNW 12.9 km/h 22.5 km/h 71 % 0 mm 11 W/m2
20:56 18.4 °C 13.4 °C 1012.1 hPa WNW 11.3 km/h 22.5 km/h 73 % 0 mm 11 W/m2
21:01 18.2 °C 13.5 °C 1012.1 hPa WNW 9.7 km/h 17.7 km/h 74 % 0 mm 9 W/m2
21:06 18 °C 13.5 °C 1012.1 hPa WNW 8 km/h 14.5 km/h 75 % 0 mm 7 W/m2
21:11 17.8 °C 13.5 °C 1012.1 hPa WNW 8 km/h 14.5 km/h 76 % 0 mm 5 W/m2
21:16 17.6 °C 13.5 °C 1012.1 hPa WNW 6.4 km/h 12.9 km/h 77 % 0 mm 0 W/m2
21:21 17.4 °C 13.5 °C 1012.4 hPa WNW 8 km/h 14.5 km/h 78 % 0 mm 0 W/m2
21:26 17.2 °C 13.3 °C 1012.4 hPa WNW 9.7 km/h 16.1 km/h 78 % 0 mm 0 W/m2
21:31 16.9 °C 13.2 °C 1012.4 hPa WNW 9.7 km/h 16.1 km/h 79 % 0 mm 0 W/m2
21:36 16.8 °C 13.3 °C 1012.4 hPa WNW 9.7 km/h 16.1 km/h 80 % 0 mm 0 W/m2
21:41 16.7 °C 13.2 °C 1012.4 hPa WNW 9.7 km/h 14.5 km/h 80 % 0 mm 0 W/m2
21:46 16.6 °C 13.1 °C 1012.4 hPa WNW 11.3 km/h 19.3 km/h 80 % 0 mm 0 W/m2
21:51 16.4 °C 13.1 °C 1012.4 hPa WNW 11.3 km/h 19.3 km/h 81 % 0 mm 0 W/m2
21:56 16.3 °C 13.1 °C 1012.4 hPa WNW 9.7 km/h 16.1 km/h 81 % 0 mm 0 W/m2
22:01 16.1 °C 12.8 °C 1012.4 hPa WNW 9.7 km/h 16.1 km/h 81 % 0 mm 0 W/m2
22:06 15.9 °C 12.7 °C 1012.8 hPa WNW 11.3 km/h 20.9 km/h 81 % 0 mm 0 W/m2
22:11 15.8 °C 12.6 °C 1012.4 hPa WNW 12.9 km/h 20.9 km/h 81 % 0 mm 0 W/m2
22:16 15.7 °C 12.4 °C 1012.8 hPa WNW 12.9 km/h 19.3 km/h 81 % 0 mm 0 W/m2
22:21 15.5 °C 12.3 °C 1012.8 hPa WNW 12.9 km/h 19.3 km/h 81 % 0 mm 0 W/m2
22:26 15.4 °C 12.2 °C 1012.8 hPa WNW 12.9 km/h 20.9 km/h 81 % 0 mm 0 W/m2
22:31 15.3 °C 12.1 °C 1012.8 hPa WNW 11.3 km/h 20.9 km/h 81 % 0 mm 0 W/m2
22:36 15.1 °C 12.1 °C 1012.8 hPa West 9.7 km/h 16.1 km/h 82 % 0 mm 0 W/m2
22:41 14.9 °C 12.1 °C 1012.8 hPa West 9.7 km/h 19.3 km/h 83 % 0 mm 0 W/m2
22:46 14.7 °C 11.8 °C 1012.8 hPa West 11.3 km/h 19.3 km/h 83 % 0 mm 0 W/m2
22:51 14.6 °C 11.7 °C 1012.8 hPa West 12.9 km/h 17.7 km/h 83 % 0 mm 0 W/m2
22:56 14.5 °C 11.7 °C 1013.1 hPa West 11.3 km/h 16.1 km/h 83 % 0 mm 0 W/m2
23:01 14.4 °C 11.6 °C 1013.1 hPa WNW 12.9 km/h 22.5 km/h 83 % 0 mm 0 W/m2
23:06 14.5 °C 11.3 °C 1013.1 hPa West 11.3 km/h 22.5 km/h 81 % 0 mm 0 W/m2
23:11 14.4 °C 11 °C 1013.1 hPa West 11.3 km/h 17.7 km/h 80 % 0 mm 0 W/m2
23:16 14.3 °C 10.9 °C 1013.4 hPa WNW 11.3 km/h 17.7 km/h 80 % 0 mm 0 W/m2
23:21 14.2 °C 10.6 °C 1013.4 hPa WNW 9.7 km/h 16.1 km/h 79 % 0 mm 0 W/m2
23:26 14.1 °C 10.5 °C 1013.4 hPa WNW 8 km/h 16.1 km/h 79 % 0 mm 0 W/m2
23:27 14.1 °C 10.5 °C 1013.4 hPa WNW 8 km/h 16.1 km/h 79 % 0 mm 0 W/m2
23:32 13.9 °C 10.1 °C 1013.4 hPa WNW 8 km/h 16.1 km/h 78 % 0 mm 0 W/m2
23:37 13.8 °C 9.8 °C 1013.4 hPa WNW 9.7 km/h 16.1 km/h 77 % 0 mm 0 W/m2
23:42 13.7 °C 9.7 °C 1013.4 hPa West 8 km/h 16.1 km/h 77 % 0 mm 0 W/m2
23:47 13.6 °C 9.4 °C 1013.4 hPa West 4.8 km/h 14.5 km/h 76 % 0 mm 0 W/m2
23:52 13.4 °C 9.3 °C 1013.4 hPa West 6.4 km/h 14.5 km/h 76 % 0 mm 0 W/m2
23:57 13.3 °C 9.2 °C 1013.4 hPa WNW 8 km/h 14.5 km/h 76 % 0 mm 0 W/m2
Delerius-Weather
Compliments of Weather Underground - 2.25 mb

Data updates at regular intervals.